createdAt,value
2024-01-26T00:01:44.529Z,95038.89
2024-01-26T00:04:12.724Z,95043.86
2024-01-26T00:06:40.258Z,95042.48
2024-01-26T00:09:14.138Z,95051.19
2024-01-26T00:11:43.457Z,95052.05
2024-01-26T00:14:10.593Z,95051.05
2024-01-26T00:16:40.119Z,95058.64
2024-01-26T00:19:09.631Z,95061.70
2024-01-26T00:21:39.047Z,95061.88
2024-01-26T00:24:08.344Z,95059.98
2024-01-26T00:26:36.525Z,95064.80
2024-01-26T00:29:05.339Z,95066.92
2024-01-26T00:31:32.806Z,95068.85
2024-01-26T00:34:01.906Z,95066.77
2024-01-26T00:36:30.777Z,95064.05
2024-01-26T00:38:59.851Z,95069.38
2024-01-26T00:41:28.767Z,95070.47
2024-01-26T00:43:59.200Z,95068.64
2024-01-26T00:46:27.088Z,95065.17
2024-01-26T00:48:55.159Z,95060.60
2024-01-26T00:51:24.143Z,95061.73
2024-01-26T00:53:53.142Z,95068.56
2024-01-26T00:56:21.580Z,95063.24
2024-01-26T00:58:50.366Z,95071.27
2024-01-26T01:01:18.477Z,95071.34
2024-01-26T01:03:46.261Z,95066.04
2024-01-26T01:06:14.562Z,95061.47
2024-01-26T01:08:44.619Z,95057.08
2024-01-26T01:11:13.038Z,95066.10
2024-01-26T01:13:41.128Z,95064.77
2024-01-26T01:16:13.100Z,95063.91
2024-01-26T01:18:42.929Z,95065.33
2024-01-26T01:21:11.553Z,95082.23
2024-01-26T01:23:40.640Z,95082.50
2024-01-26T01:26:09.240Z,95089.03
2024-01-26T01:28:37.492Z,95083.57
2024-01-26T01:31:05.743Z,95071.39
2024-01-26T01:33:34.115Z,95081.66
2024-01-26T01:36:02.575Z,95078.55
2024-01-26T01:38:30.504Z,95079.28
2024-01-26T01:40:58.313Z,95073.02
2024-01-26T01:43:26.175Z,95080.09
2024-01-26T01:45:54.490Z,95087.94
2024-01-26T01:48:22.535Z,95081.41
2024-01-26T01:50:51.306Z,95089.20
2024-01-26T01:53:20.327Z,95086.67
2024-01-26T01:55:51.635Z,95083.77
2024-01-26T01:58:22.101Z,95087.73
2024-01-26T02:00:50.376Z,95084.15
2024-01-26T02:03:21.071Z,95073.70
2024-01-26T02:05:49.294Z,95077.16
2024-01-26T02:08:17.950Z,95082.18
2024-01-26T02:10:45.866Z,95072.22
2024-01-26T02:13:13.593Z,95076.24
2024-01-26T02:15:43.114Z,95082.33
2024-01-26T02:18:10.877Z,95068.58
2024-01-26T02:20:47.314Z,95066.16
2024-01-26T02:23:24.791Z,95080.17
2024-01-26T02:25:54.253Z,95079.26
2024-01-26T02:28:22.099Z,95071.71
2024-01-26T02:30:49.986Z,95073.88
2024-01-26T02:33:17.931Z,95070.89
2024-01-26T02:35:45.938Z,95075.88
2024-01-26T02:38:13.801Z,95075.65
2024-01-26T02:40:43.156Z,95068.48
2024-01-26T02:43:11.525Z,95069.02
2024-01-26T02:45:38.934Z,95060.03
2024-01-26T02:48:06.750Z,95066.73
2024-01-26T02:50:35.332Z,95061.14
2024-01-26T02:53:03.572Z,95060.47
2024-01-26T02:55:31.285Z,95068.09
2024-01-26T02:57:59.077Z,95071.14
2024-01-26T03:00:27.380Z,95073.54
2024-01-26T03:02:55.819Z,95073.50
2024-01-26T03:05:24.450Z,95062.11
2024-01-26T03:07:52.538Z,95064.54
2024-01-26T03:10:20.783Z,95060.23
2024-01-26T03:12:49.123Z,95063.38
2024-01-26T03:15:17.786Z,95053.48
2024-01-26T03:17:45.619Z,95049.71
2024-01-26T03:20:14.579Z,95053.35
2024-01-26T03:22:44.006Z,95059.83
2024-01-26T03:25:11.809Z,95056.50
2024-01-26T03:27:40.072Z,95051.14
2024-01-26T03:30:09.174Z,95054.36
2024-01-26T03:32:37.127Z,95046.05
2024-01-26T03:35:05.891Z,95056.06
2024-01-26T03:37:33.513Z,95055.98
2024-01-26T03:40:03.870Z,95052.88
2024-01-26T03:42:31.862Z,95048.11
2024-01-26T03:45:00.891Z,95061.27
2024-01-26T03:47:28.989Z,95059.38
2024-01-26T03:49:57.444Z,95076.17
2024-01-26T03:52:25.754Z,95078.66
2024-01-26T03:54:54.955Z,95080.05
2024-01-26T03:57:23.436Z,95081.84
2024-01-26T03:59:51.346Z,95081.05
2024-01-26T04:02:19.320Z,95090.13
2024-01-26T04:04:46.685Z,95085.80
2024-01-26T04:07:14.964Z,95089.74
2024-01-26T04:09:43.090Z,95103.04
2024-01-26T04:12:11.065Z,95113.30
2024-01-26T04:14:38.884Z,95125.33
2024-01-26T04:17:07.384Z,95126.91
2024-01-26T04:19:34.750Z,95128.52
2024-01-26T04:22:02.352Z,95138.16
2024-01-26T04:24:30.210Z,95138.40
2024-01-26T04:26:57.833Z,95143.09
2024-01-26T04:29:26.302Z,95152.23
2024-01-26T04:31:54.335Z,95155.40
2024-01-26T04:34:24.363Z,95168.85
2024-01-26T04:36:52.512Z,95177.91
2024-01-26T04:39:20.900Z,95177.17
2024-01-26T04:41:48.662Z,95181.85
2024-01-26T04:44:16.721Z,95187.52
2024-01-26T04:46:44.258Z,95193.51
2024-01-26T04:49:13.587Z,95188.02
2024-01-26T04:51:42.026Z,95191.20
2024-01-26T04:54:09.753Z,95188.30
2024-01-26T04:56:38.163Z,95194.25
2024-01-26T04:59:08.527Z,95190.82
2024-01-26T05:01:36.273Z,95197.98
2024-01-26T05:04:04.801Z,95199.66
2024-01-26T05:06:33.134Z,95195.23
2024-01-26T05:09:01.132Z,95195.08
2024-01-26T05:11:29.488Z,95191.78
2024-01-26T05:13:57.504Z,95193.81
2024-01-26T05:16:25.851Z,95191.27
2024-01-26T05:18:54.439Z,95190.59
2024-01-26T05:21:24.396Z,95187.45
2024-01-26T05:23:52.784Z,95187.01
2024-01-26T05:26:22.177Z,95186.80
2024-01-26T05:28:50.060Z,95185.08
2024-01-26T05:31:18.402Z,95179.97
2024-01-26T05:33:47.450Z,95193.35
2024-01-26T05:36:15.288Z,95192.22
2024-01-26T05:38:42.854Z,95202.20
2024-01-26T05:41:13.103Z,95204.39
2024-01-26T05:43:41.051Z,95204.74
2024-01-26T05:46:11.925Z,95205.49
2024-01-26T05:48:44.064Z,95209.69
2024-01-26T05:51:13.771Z,95200.80
2024-01-26T05:53:41.111Z,95203.01
2024-01-26T05:56:10.833Z,95209.27
2024-01-26T05:58:40.395Z,95210.95
2024-01-26T06:01:08.583Z,95208.52
2024-01-26T06:03:38.759Z,95211.27
2024-01-26T06:06:07.238Z,95205.91
2024-01-26T06:08:37.827Z,95203.39
2024-01-26T06:11:06.469Z,95200.95
2024-01-26T06:13:35.882Z,95205.98
2024-01-26T06:16:05.005Z,95204.37
2024-01-26T06:18:32.932Z,95208.23
2024-01-26T06:21:00.989Z,95216.20
2024-01-26T06:23:30.190Z,95213.10
2024-01-26T06:25:58.488Z,95206.38
2024-01-26T06:28:26.829Z,95211.03
2024-01-26T06:30:55.935Z,95202.85
2024-01-26T06:33:24.901Z,95203.17
2024-01-26T06:35:52.760Z,95211.67
2024-01-26T06:38:22.063Z,95205.14
2024-01-26T06:41:14.679Z,95208.45
2024-01-26T06:47:07.284Z,95206.91
2024-01-26T06:50:14.484Z,95219.31
2024-01-26T06:53:05.645Z,95229.05
2024-01-26T06:58:52.863Z,95241.95
2024-01-26T07:01:25.300Z,95241.35
2024-01-26T07:04:25.586Z,95242.15
2024-01-26T07:07:24.466Z,95246.95
2024-01-26T07:10:48.439Z,95248.36
2024-01-26T07:13:55.951Z,95252.10
2024-01-26T07:17:15.723Z,95266.89
2024-01-26T07:19:48.113Z,95265.46
2024-01-26T07:24:25.375Z,95270.52
2024-01-26T07:26:56.531Z,95267.26
2024-01-26T07:29:56.617Z,95281.60
2024-01-26T07:32:28.225Z,95276.66
2024-01-26T07:35:11.677Z,95274.65
2024-01-26T07:37:57.834Z,95284.07
2024-01-26T07:40:29.467Z,95284.08
2024-01-26T07:43:09.647Z,95297.13
2024-01-26T07:52:00.511Z,95294.85
2024-01-26T07:58:38.807Z,95309.11
2024-01-26T08:05:18.442Z,95308.06
2024-01-26T08:08:09.614Z,95306.06
2024-01-26T08:11:12.072Z,95309.29
2024-01-26T08:14:04.137Z,95288.60
2024-01-26T08:17:03.634Z,95288.30
2024-01-26T08:19:38.055Z,95288.51
2024-01-26T08:22:14.856Z,95300.32
2024-01-26T08:24:50.091Z,95311.05
2024-01-26T08:27:23.381Z,95298.77
2024-01-26T08:29:55.936Z,95310.45
2024-01-26T08:33:26.783Z,95319.90
2024-01-26T08:36:23.674Z,95330.73
2024-01-26T08:39:07.254Z,95344.53
2024-01-26T08:41:40.485Z,95336.95
2024-01-26T08:44:34.685Z,95341.68
2024-01-26T08:53:19.759Z,95335.95
2024-01-26T08:53:50.104Z,95352.69
2024-01-26T08:57:03.947Z,95348.79
2024-01-26T08:59:43.515Z,95361.09
2024-01-26T09:02:28.293Z,95362.83
2024-01-26T09:05:46.661Z,95360.33
2024-01-26T09:08:47.281Z,95363.41
2024-01-26T09:11:32.509Z,95376.96
2024-01-26T09:14:06.147Z,95373.19
2024-01-26T09:17:04.517Z,95382.80
2024-01-26T09:19:47.398Z,95383.67
2024-01-26T09:22:17.215Z,95387.05
2024-01-26T09:24:57.688Z,95393.39
2024-01-26T09:27:36.576Z,95389.73
2024-01-26T09:30:56.475Z,95386.11
2024-01-26T09:34:36.470Z,95379.55
2024-01-26T09:37:12.268Z,95379.15
2024-01-26T09:40:19.383Z,95372.69
2024-01-26T09:47:40.346Z,95379.95
2024-01-26T09:50:21.161Z,95376.00
2024-01-26T09:53:05.321Z,95383.27
2024-01-26T09:55:45.740Z,95388.08
2024-01-26T09:58:44.075Z,95385.66
2024-01-26T10:01:22.332Z,95382.10
2024-01-26T10:03:53.611Z,95383.19
2024-01-26T10:06:27.311Z,95381.10
2024-01-26T10:08:55.411Z,95384.62
2024-01-26T10:11:23.777Z,95382.80
2024-01-26T10:13:57.379Z,95384.84
2024-01-26T10:16:26.270Z,95389.11
2024-01-26T10:18:54.641Z,95397.67
2024-01-26T10:21:23.317Z,95399.83
2024-01-26T10:23:56.622Z,95400.70
2024-01-26T10:26:30.547Z,95398.89
2024-01-26T10:29:10.301Z,95402.58
2024-01-26T10:31:42.444Z,95402.32
2024-01-26T10:34:25.260Z,95407.31
2024-01-26T10:37:11.671Z,95411.94
2024-01-26T10:43:23.909Z,95416.29
2024-01-26T10:45:54.418Z,95415.05
2024-01-26T10:48:33.755Z,95414.92
2024-01-26T10:51:05.729Z,95418.19
2024-01-26T10:53:37.653Z,95415.87
2024-01-26T10:57:11.399Z,95419.08
2024-01-26T11:00:29.374Z,95415.40
2024-01-26T11:16:07.813Z,95407.17
2024-01-26T11:18:36.857Z,95415.98
2024-01-26T11:21:45.098Z,95409.73
2024-01-26T11:24:25.209Z,95403.92
2024-01-26T11:30:33.517Z,95394.19
2024-01-26T11:33:04.857Z,95394.63
2024-01-26T11:36:15.433Z,95375.08
2024-01-26T11:39:17.173Z,95383.46
2024-01-26T11:41:57.026Z,95388.19
2024-01-26T11:44:32.018Z,95391.52
2024-01-26T11:47:24.336Z,95393.91
2024-01-26T11:50:09.255Z,95397.40
2024-01-26T11:52:41.567Z,95395.20
2024-01-26T11:55:14.326Z,95393.87
2024-01-26T11:57:48.960Z,95396.80
2024-01-26T12:00:30.198Z,95405.23
2024-01-26T12:02:59.039Z,95404.50
2024-01-26T12:05:27.530Z,95403.70
2024-01-26T12:12:50.154Z,95396.30
2024-01-26T12:15:18.580Z,95384.63
2024-01-26T12:17:48.198Z,95391.00
2024-01-26T12:20:18.962Z,95392.91
2024-01-26T12:22:47.305Z,95393.81
2024-01-26T12:25:15.886Z,95390.31
2024-01-26T12:27:50.503Z,95392.77
2024-01-26T12:30:27.315Z,95400.42
2024-01-26T12:33:06.359Z,95394.59
2024-01-26T12:35:40.866Z,95395.59
2024-01-26T12:38:10.344Z,95395.47
2024-01-26T12:40:38.821Z,95402.04
2024-01-26T12:43:14.974Z,95404.89
2024-01-26T12:45:47.880Z,95415.61
2024-01-26T12:48:16.512Z,95411.76
2024-01-26T12:50:44.897Z,95409.52
2024-01-26T12:53:13.609Z,95408.26
2024-01-26T12:55:41.834Z,95411.22
2024-01-26T12:58:12.336Z,95412.76
2024-01-26T13:00:41.164Z,95408.58
2024-01-26T13:03:09.783Z,95407.55
2024-01-26T13:05:39.972Z,95413.39
2024-01-26T13:08:09.031Z,95409.67
2024-01-26T13:10:37.133Z,95416.41
2024-01-26T13:13:05.616Z,95401.70
2024-01-26T13:15:34.999Z,95415.56
2024-01-26T13:18:06.875Z,95414.77
2024-01-26T13:20:39.763Z,95418.42
2024-01-26T13:23:09.680Z,95413.33
2024-01-26T13:25:38.803Z,95410.16
2024-01-26T13:28:07.179Z,95410.40
2024-01-26T13:30:35.676Z,95410.39
2024-01-26T13:33:04.455Z,95404.34
2024-01-26T13:35:32.124Z,95411.27
2024-01-26T13:38:01.610Z,95407.61
2024-01-26T13:40:29.064Z,95402.85
2024-01-26T13:42:57.790Z,95415.09
2024-01-26T13:45:27.014Z,95416.23
2024-01-26T13:48:01.146Z,95424.94
2024-01-26T13:50:33.192Z,95424.38
2024-01-26T13:53:03.104Z,95433.99
2024-01-26T13:55:31.645Z,95437.95
2024-01-26T13:58:00.649Z,95443.15
2024-01-26T14:00:29.816Z,95445.14
2024-01-26T14:02:59.122Z,95438.75
2024-01-26T14:05:27.978Z,95446.56
2024-01-26T14:07:55.934Z,95448.80
2024-01-26T14:10:26.275Z,95449.66
2024-01-26T14:12:55.691Z,95448.72
2024-01-26T14:15:25.620Z,95452.03
2024-01-26T14:17:55.048Z,95450.20
2024-01-26T14:20:23.273Z,95449.54
2024-01-26T14:22:52.701Z,95449.35
2024-01-26T14:25:21.820Z,95452.39
2024-01-26T14:27:53.354Z,95455.98
2024-01-26T14:30:24.153Z,95453.40
2024-01-26T14:32:53.002Z,95456.00
2024-01-26T14:35:22.189Z,95454.11
2024-01-26T14:37:50.463Z,95458.29
2024-01-26T14:40:18.714Z,95456.68
2024-01-26T14:42:50.118Z,95456.63
2024-01-26T14:45:17.706Z,95457.20
2024-01-26T14:47:48.321Z,95460.96
2024-01-26T14:50:19.163Z,95463.14
2024-01-26T14:52:48.234Z,95463.48
2024-01-26T14:55:18.000Z,95463.66
2024-01-26T14:57:46.097Z,95475.31
2024-01-26T15:00:16.633Z,95474.53
2024-01-26T15:02:45.440Z,95479.81
2024-01-26T15:05:13.734Z,95477.04
2024-01-26T15:07:46.270Z,95478.67
2024-01-26T15:10:17.440Z,95475.55
2024-01-26T15:12:46.149Z,95479.32
2024-01-26T15:15:14.926Z,95487.34
2024-01-26T15:17:43.641Z,95492.66
2024-01-26T15:20:14.680Z,95496.27
2024-01-26T15:22:49.185Z,95498.55
2024-01-26T15:25:17.411Z,95500.49
2024-01-26T15:27:45.968Z,95504.31
2024-01-26T15:30:17.910Z,95505.81
2024-01-26T15:32:47.394Z,95508.01
2024-01-26T15:35:16.169Z,95511.56
2024-01-26T15:37:45.035Z,95513.70
2024-01-26T15:40:15.103Z,95516.27
2024-01-26T15:42:45.403Z,95521.84
2024-01-26T15:45:15.531Z,95522.24
2024-01-26T15:47:44.102Z,95520.58
2024-01-26T15:50:12.763Z,95515.34
2024-01-26T15:52:45.410Z,95519.71
2024-01-26T15:55:16.907Z,95527.31
2024-01-26T15:57:46.258Z,95522.67
2024-01-26T16:00:15.331Z,95529.44
2024-01-26T16:02:43.884Z,95530.06
2024-01-26T16:05:12.695Z,95535.44
2024-01-26T16:07:40.160Z,95535.16
2024-01-26T16:10:10.589Z,95529.73
2024-01-26T16:12:39.104Z,95532.05
2024-01-26T16:15:08.258Z,95531.64
2024-01-26T16:17:37.026Z,95531.30
2024-01-26T16:20:07.226Z,95528.21
2024-01-26T16:22:36.585Z,95528.14
2024-01-26T16:25:07.512Z,95535.48
2024-01-26T16:27:35.647Z,95528.35
2024-01-26T16:30:06.126Z,95528.52
2024-01-26T16:32:38.280Z,95529.85
2024-01-26T16:35:09.654Z,95529.85
2024-01-26T16:37:38.973Z,95534.38
2024-01-26T16:40:09.928Z,95542.67
2024-01-26T16:42:38.947Z,95539.20
2024-01-26T16:45:06.949Z,95538.91
2024-01-26T16:47:35.466Z,95538.39
2024-01-26T16:50:06.550Z,95537.31
2024-01-26T16:52:35.994Z,95536.69
2024-01-26T16:55:05.907Z,95540.05
2024-01-26T16:57:36.653Z,95535.54
2024-01-26T17:00:06.555Z,95530.36
2024-01-26T17:02:38.568Z,95532.94
2024-01-26T17:05:08.034Z,95534.84
2024-01-26T17:07:38.283Z,95533.27
2024-01-26T17:10:07.268Z,95536.77
2024-01-26T17:12:36.525Z,95536.94
2024-01-26T17:15:06.140Z,95542.64
2024-01-26T17:17:35.173Z,95539.71
2024-01-26T17:20:06.314Z,95539.34
2024-01-26T17:22:36.495Z,95547.86
2024-01-26T17:25:07.325Z,95544.20
2024-01-26T17:27:35.525Z,95538.55
2024-01-26T17:30:04.097Z,95546.08
2024-01-26T17:32:33.133Z,95545.61
2024-01-26T17:35:04.445Z,95553.02
2024-01-26T17:37:32.654Z,95553.39
2024-01-26T17:40:03.447Z,95556.67
2024-01-26T17:42:32.765Z,95559.73
2024-01-26T17:45:00.787Z,95558.13
2024-01-26T17:47:28.551Z,95566.40
2024-01-26T17:49:59.130Z,95563.21
2024-01-26T17:52:29.170Z,95560.02
2024-01-26T17:54:57.855Z,95563.86
2024-01-26T17:57:26.491Z,95557.58
2024-01-26T17:59:54.969Z,95556.25
2024-01-26T18:02:27.087Z,95554.66
2024-01-26T18:04:57.529Z,95546.95
2024-01-26T18:07:25.927Z,95554.83
2024-01-26T18:09:54.831Z,95554.26
2024-01-26T18:12:23.592Z,95553.11
2024-01-26T18:14:53.758Z,95553.48
2024-01-26T18:17:22.232Z,95551.77
2024-01-26T18:19:53.108Z,95550.55
2024-01-26T18:22:20.763Z,95548.55
2024-01-26T18:24:53.556Z,95552.76
2024-01-26T18:27:24.527Z,95551.10
2024-01-26T18:29:53.950Z,95557.34
2024-01-26T18:32:23.071Z,95554.04
2024-01-26T18:34:52.584Z,95554.47
2024-01-26T18:37:21.511Z,95552.43
2024-01-26T18:39:50.772Z,95551.67
2024-01-26T18:42:18.752Z,95544.85
2024-01-26T18:44:48.206Z,95538.61
2024-01-26T18:47:16.495Z,95533.45
2024-01-26T18:49:45.960Z,95532.27
2024-01-26T18:52:13.834Z,95530.49
2024-01-26T18:54:42.097Z,95528.77
2024-01-26T18:57:11.278Z,95524.73
2024-01-26T18:59:41.296Z,95524.80
2024-01-26T19:02:10.544Z,95525.80
2024-01-26T19:04:40.002Z,95519.34
2024-01-26T19:07:10.288Z,95517.28
2024-01-26T19:09:40.313Z,95512.12
2024-01-26T19:12:09.613Z,95521.75
2024-01-26T19:14:38.276Z,95522.91
2024-01-26T19:17:07.838Z,95522.93
2024-01-26T19:19:39.061Z,95516.27
2024-01-26T19:22:06.808Z,95512.27
2024-01-26T19:24:34.948Z,95512.34
2024-01-26T19:27:07.183Z,95511.55
2024-01-26T19:29:40.178Z,95503.98
2024-01-26T19:32:10.423Z,95502.14
2024-01-26T19:34:41.016Z,95503.64
2024-01-26T19:37:10.922Z,95500.36
2024-01-26T19:39:39.652Z,95499.73
2024-01-26T19:42:10.038Z,95497.23
2024-01-26T19:44:39.902Z,95497.39
2024-01-26T19:47:13.178Z,95497.70
2024-01-26T19:49:43.790Z,95503.70
2024-01-26T19:52:13.232Z,95505.41
2024-01-26T19:54:42.714Z,95506.02
2024-01-26T19:57:10.933Z,95514.52
2024-01-26T19:59:41.731Z,95513.09
2024-01-26T20:02:11.133Z,95515.50
2024-01-26T20:04:39.247Z,95517.39
2024-01-26T20:07:09.369Z,95522.80
2024-01-26T20:09:39.637Z,95519.58
2024-01-26T20:12:08.587Z,95522.78
2024-01-26T20:14:38.699Z,95524.13
2024-01-26T20:17:09.991Z,95521.92
2024-01-26T20:19:38.995Z,95514.48
2024-01-26T20:22:10.907Z,95517.58
2024-01-26T20:24:39.699Z,95516.57
2024-01-26T20:27:09.366Z,95517.55
2024-01-26T20:29:39.048Z,95514.96
2024-01-26T20:32:08.954Z,95515.05
2024-01-26T20:34:38.427Z,95517.95
2024-01-26T20:37:07.782Z,95517.46
2024-01-26T20:39:35.953Z,95517.42
2024-01-26T20:42:06.591Z,95514.47
2024-01-26T20:44:35.556Z,95514.16
2024-01-26T20:47:05.581Z,95521.56
2024-01-26T20:49:37.510Z,95515.84
2024-01-26T20:52:06.463Z,95515.42
2024-01-26T20:54:35.026Z,95515.25
2024-01-26T20:57:04.471Z,95512.27
2024-01-26T20:59:33.805Z,95515.59
2024-01-26T21:02:04.501Z,95507.45
2024-01-26T21:04:32.692Z,95509.23
2024-01-26T21:07:01.396Z,95506.48
2024-01-26T21:09:31.214Z,95502.54
2024-01-26T21:11:59.504Z,95502.41
2024-01-26T21:14:28.232Z,95501.34
2024-01-26T21:16:56.862Z,95495.98
2024-01-26T21:19:25.156Z,95494.30
2024-01-26T21:21:53.799Z,95495.70
2024-01-26T21:24:22.924Z,95492.92
2024-01-26T21:26:51.888Z,95492.98
2024-01-26T21:29:20.173Z,95486.39
2024-01-26T21:31:52.201Z,95485.09
2024-01-26T21:34:20.375Z,95482.81
2024-01-26T21:36:50.139Z,95477.70
2024-01-26T21:39:20.443Z,95471.88
2024-01-26T21:41:49.322Z,95466.31
2024-01-26T21:44:18.257Z,95463.80
2024-01-26T21:46:45.935Z,95462.66
2024-01-26T21:49:16.786Z,95460.97
2024-01-26T21:51:55.017Z,95460.42
2024-01-26T21:54:26.679Z,95458.98
2024-01-26T21:56:54.750Z,95463.27
2024-01-26T21:59:24.212Z,95464.41
2024-01-26T22:01:54.255Z,95461.25
2024-01-26T22:04:24.486Z,95466.54
2024-01-26T22:06:53.479Z,95464.42
2024-01-26T22:09:21.855Z,95462.62
2024-01-26T22:11:52.011Z,95456.56
2024-01-26T22:14:20.555Z,95456.59
2024-01-26T22:16:50.368Z,95455.51
2024-01-26T22:19:19.989Z,95456.52
2024-01-26T22:21:49.235Z,95458.30
2024-01-26T22:24:18.364Z,95454.52
2024-01-26T22:26:47.224Z,95461.31
2024-01-26T22:29:14.866Z,95460.99
2024-01-26T22:31:44.887Z,95459.13
2024-01-26T22:34:13.338Z,95461.77
2024-01-26T22:36:42.058Z,95461.76
2024-01-26T22:39:11.911Z,95457.65
2024-01-26T22:41:41.166Z,95449.04
2024-01-26T22:44:10.145Z,95446.84
2024-01-26T22:46:42.801Z,95443.42
2024-01-26T22:49:11.221Z,95439.80
2024-01-26T22:51:40.637Z,95437.71
2024-01-26T22:54:08.637Z,95434.38
2024-01-26T22:56:38.539Z,95424.86
2024-01-26T22:59:06.312Z,95426.68
2024-01-26T23:01:34.733Z,95428.21
2024-01-26T23:04:04.924Z,95423.70
2024-01-26T23:06:32.568Z,95416.79
2024-01-26T23:09:01.419Z,95418.65
2024-01-26T23:11:33.369Z,95416.63
2024-01-26T23:14:02.635Z,95415.56
2024-01-26T23:16:31.794Z,95410.71
2024-01-26T23:19:00.538Z,95406.28
2024-01-26T23:21:29.718Z,95409.44
2024-01-26T23:23:58.008Z,95413.52
2024-01-26T23:26:27.416Z,95415.48
2024-01-26T23:28:54.914Z,95416.51
2024-01-26T23:31:23.441Z,95416.45
2024-01-26T23:33:53.676Z,95411.48
2024-01-26T23:36:22.374Z,95404.96
2024-01-26T23:38:51.973Z,95397.83
2024-01-26T23:41:20.696Z,95394.92
2024-01-26T23:43:50.073Z,95394.46
2024-01-26T23:46:18.085Z,95394.02
2024-01-26T23:48:46.309Z,95386.09
2024-01-26T23:51:16.339Z,95387.70
2024-01-26T23:53:44.720Z,95385.08
2024-01-26T23:56:12.802Z,95384.48
2024-01-26T23:58:40.944Z,95381.98
